sensor_id;sensor_type;location;lat;lon;timestamp;pressure;altitude;pressure_sealevel;temperature;humidity
16481;BME280;44634;54.110;12.138;2023-03-25T00:00:14;99522.97;;;11.12;100.00
16481;BME280;44634;54.110;12.138;2023-03-25T00:02:45;99536.72;;;11.07;100.00
16481;BME280;44634;54.110;12.138;2023-03-25T00:05:15;99522.72;;;10.90;100.00
16481;BME280;44634;54.110;12.138;2023-03-25T00:07:47;99514.31;;;10.79;100.00
16481;BME280;44634;54.110;12.138;2023-03-25T00:10:15;99515.81;;;10.65;100.00
16481;BME280;44634;54.110;12.138;2023-03-25T00:12:43;99493.22;;;11.10;100.00
16481;BME280;44634;54.110;12.138;2023-03-25T00:15:12;99500.56;;;10.99;100.00
16481;BME280;44634;54.110;12.138;2023-03-25T00:17:42;99499.56;;;10.92;100.00
16481;BME280;44634;54.110;12.138;2023-03-25T00:20:10;99480.69;;;11.03;100.00
16481;BME280;44634;54.110;12.138;2023-03-25T00:22:39;99480.06;;;11.01;100.00
16481;BME280;44634;54.110;12.138;2023-03-25T00:25:13;99509.88;;;10.71;100.00
16481;BME280;44634;54.110;12.138;2023-03-25T00:27:43;99491.34;;;10.79;100.00
16481;BME280;44634;54.110;12.138;2023-03-25T00:30:13;99488.59;;;11.12;100.00
16481;BME280;44634;54.110;12.138;2023-03-25T00:32:41;99485.06;;;10.80;100.00
16481;BME280;44634;54.110;12.138;2023-03-25T00:35:11;99491.03;;;10.66;100.00
16481;BME280;44634;54.110;12.138;2023-03-25T00:37:45;99457.97;;;10.86;100.00
16481;BME280;44634;54.110;12.138;2023-03-25T00:40:14;99455.19;;;10.71;100.00
16481;BME280;44634;54.110;12.138;2023-03-25T00:42:42;99440.88;;;10.50;100.00
16481;BME280;44634;54.110;12.138;2023-03-25T00:45:15;99419.09;;;10.23;100.00
16481;BME280;44634;54.110;12.138;2023-03-25T00:47:43;99416.56;;;10.62;100.00
16481;BME280;44634;54.110;12.138;2023-03-25T00:50:12;99424.00;;;10.59;100.00
16481;BME280;44634;54.110;12.138;2023-03-25T00:52:40;99424.50;;;10.54;100.00
16481;BME280;44634;54.110;12.138;2023-03-25T00:55:08;99420.09;;;9.90;100.00
16481;BME280;44634;54.110;12.138;2023-03-25T00:57:38;99392.69;;;10.31;100.00
16481;BME280;44634;54.110;12.138;2023-03-25T01:00:10;99394.97;;;10.42;100.00
16481;BME280;44634;54.110;12.138;2023-03-25T01:02:38;99405.56;;;10.34;100.00
16481;BME280;44634;54.110;12.138;2023-03-25T01:05:07;99395.41;;;10.70;100.00
16481;BME280;44634;54.110;12.138;2023-03-25T01:07:36;99382.88;;;10.56;100.00
16481;BME280;44634;54.110;12.138;2023-03-25T01:10:05;99396.28;;;10.47;100.00
16481;BME280;44634;54.110;12.138;2023-03-25T01:12:33;99402.78;;;10.28;100.00
16481;BME280;44634;54.110;12.138;2023-03-25T01:15:03;99385.91;;;10.21;100.00
16481;BME280;44634;54.110;12.138;2023-03-25T01:17:31;99380.31;;;10.32;100.00
16481;BME280;44634;54.110;12.138;2023-03-25T01:19:59;99385.13;;;10.76;100.00
16481;BME280;44634;54.110;12.138;2023-03-25T01:22:27;99375.50;;;10.43;100.00
16481;BME280;44634;54.110;12.138;2023-03-25T01:24:55;99358.41;;;10.62;100.00
16481;BME280;44634;54.110;12.138;2023-03-25T01:27:22;99353.06;;;10.15;100.00
16481;BME280;44634;54.110;12.138;2023-03-25T01:29:51;99356.34;;;10.33;100.00
16481;BME280;44634;54.110;12.138;2023-03-25T01:32:21;99364.28;;;10.09;100.00
16481;BME280;44634;54.110;12.138;2023-03-25T01:34:49;99354.91;;;9.82;100.00
16481;BME280;44634;54.110;12.138;2023-03-25T01:37:16;99393.88;;;9.56;100.00
16481;BME280;44634;54.110;12.138;2023-03-25T01:39:44;99460.03;;;9.87;100.00
16481;BME280;44634;54.110;12.138;2023-03-25T01:42:12;99460.19;;;9.93;100.00
16481;BME280;44634;54.110;12.138;2023-03-25T01:45:17;99448.16;;;10.15;100.00
16481;BME280;44634;54.110;12.138;2023-03-25T01:47:48;99441.38;;;10.04;100.00
16481;BME280;44634;54.110;12.138;2023-03-25T01:50:19;99469.28;;;10.07;100.00
16481;BME280;44634;54.110;12.138;2023-03-25T01:52:49;99463.63;;;9.61;100.00
16481;BME280;44634;54.110;12.138;2023-03-25T01:55:18;99509.19;;;9.79;100.00
16481;BME280;44634;54.110;12.138;2023-03-25T01:57:47;99527.69;;;9.88;100.00
16481;BME280;44634;54.110;12.138;2023-03-25T02:00:19;99553.69;;;9.58;100.00
16481;BME280;44634;54.110;12.138;2023-03-25T02:02:49;99581.94;;;9.40;100.00
16481;BME280;44634;54.110;12.138;2023-03-25T02:05:20;99607.50;;;9.73;100.00
16481;BME280;44634;54.110;12.138;2023-03-25T02:07:53;99621.41;;;9.49;100.00
16481;BME280;44634;54.110;12.138;2023-03-25T02:10:23;99626.06;;;9.56;100.00
16481;BME280;44634;54.110;12.138;2023-03-25T02:12:51;99635.31;;;9.60;100.00
16481;BME280;44634;54.110;12.138;2023-03-25T02:15:21;99639.44;;;9.28;100.00
16481;BME280;44634;54.110;12.138;2023-03-25T02:18:07;99638.94;;;9.59;100.00
16481;BME280;44634;54.110;12.138;2023-03-25T02:21:14;99639.78;;;9.67;100.00
16481;BME280;44634;54.110;12.138;2023-03-25T02:27:13;99608.81;;;9.69;100.00
16481;BME280;44634;54.110;12.138;2023-03-25T02:30:10;99618.63;;;9.51;100.00
16481;BME280;44634;54.110;12.138;2023-03-25T02:33:13;99644.66;;;9.46;100.00
16481;BME280;44634;54.110;12.138;2023-03-25T02:36:09;99624.47;;;9.11;100.00
16481;BME280;44634;54.110;12.138;2023-03-25T02:38:46;99615.63;;;9.46;100.00
16481;BME280;44634;54.110;12.138;2023-03-25T02:41:21;99631.22;;;9.31;100.00
16481;BME280;44634;54.110;12.138;2023-03-25T02:43:56;99610.31;;;9.38;100.00
16481;BME280;44634;54.110;12.138;2023-03-25T02:46:28;99603.59;;;9.51;100.00
16481;BME280;44634;54.110;12.138;2023-03-25T02:49:02;99580.22;;;9.57;100.00
16481;BME280;44634;54.110;12.138;2023-03-25T02:51:35;99586.78;;;9.52;100.00
16481;BME280;44634;54.110;12.138;2023-03-25T02:54:08;99561.91;;;9.55;100.00
16481;BME280;44634;54.110;12.138;2023-03-25T02:56:40;99553.16;;;9.54;100.00
16481;BME280;44634;54.110;12.138;2023-03-25T02:59:13;99560.78;;;9.58;100.00
16481;BME280;44634;54.110;12.138;2023-03-25T03:01:45;99569.84;;;9.55;100.00
16481;BME280;44634;54.110;12.138;2023-03-25T03:04:15;99551.44;;;9.37;100.00
16481;BME280;44634;54.110;12.138;2023-03-25T03:06:43;99570.34;;;9.24;100.00
16481;BME280;44634;54.110;12.138;2023-03-25T03:09:36;99575.56;;;9.50;100.00
16481;BME280;44634;54.110;12.138;2023-03-25T03:12:14;99564.06;;;9.60;100.00
16481;BME280;44634;54.110;12.138;2023-03-25T03:14:58;99535.88;;;9.68;100.00
16481;BME280;44634;54.110;12.138;2023-03-25T03:17:36;99533.28;;;9.76;100.00
16481;BME280;44634;54.110;12.138;2023-03-25T03:20:15;99524.34;;;9.77;100.00
16481;BME280;44634;54.110;12.138;2023-03-25T03:22:47;99527.28;;;9.58;100.00
16481;BME280;44634;54.110;12.138;2023-03-25T03:25:26;99514.91;;;9.59;100.00
16481;BME280;44634;54.110;12.138;2023-03-25T03:28:02;99521.72;;;9.77;100.00
16481;BME280;44634;54.110;12.138;2023-03-25T03:30:41;99529.75;;;9.60;100.00
16481;BME280;44634;54.110;12.138;2023-03-25T03:33:15;99550.16;;;9.41;100.00
16481;BME280;44634;54.110;12.138;2023-03-25T03:35:49;99538.19;;;9.55;100.00
16481;BME280;44634;54.110;12.138;2023-03-25T03:38:25;99539.66;;;9.58;100.00
16481;BME280;44634;54.110;12.138;2023-03-25T03:40:59;99529.81;;;9.76;100.00
16481;BME280;44634;54.110;12.138;2023-03-25T03:43:31;99537.69;;;9.68;100.00
16481;BME280;44634;54.110;12.138;2023-03-25T03:46:03;99503.38;;;9.68;100.00
16481;BME280;44634;54.110;12.138;2023-03-25T03:48:36;99520.84;;;9.61;100.00
16481;BME280;44634;54.110;12.138;2023-03-25T03:51:08;99510.69;;;10.06;100.00
16481;BME280;44634;54.110;12.138;2023-03-25T03:53:40;99509.28;;;9.53;100.00
16481;BME280;44634;54.110;12.138;2023-03-25T03:56:12;99514.91;;;9.59;100.00
16481;BME280;44634;54.110;12.138;2023-03-25T03:58:44;99518.59;;;9.74;100.00
16481;BME280;44634;54.110;12.138;2023-03-25T04:01:19;99522.09;;;9.99;100.00
16481;BME280;44634;54.110;12.138;2023-03-25T04:03:56;99498.28;;;9.66;100.00
16481;BME280;44634;54.110;12.138;2023-03-25T04:06:32;99500.94;;;9.82;100.00
16481;BME280;44634;54.110;12.138;2023-03-25T04:09:07;99492.72;;;10.02;100.00
16481;BME280;44634;54.110;12.138;2023-03-25T04:11:43;99480.66;;;9.91;100.00
16481;BME280;44634;54.110;12.138;2023-03-25T04:14:14;99506.84;;;9.68;100.00
16481;BME280;44634;54.110;12.138;2023-03-25T04:16:43;99497.66;;;9.97;100.00
16481;BME280;44634;54.110;12.138;2023-03-25T04:19:17;99495.66;;;9.74;100.00
16481;BME280;44634;54.110;12.138;2023-03-25T04:21:45;99481.00;;;9.88;100.00
16481;BME280;44634;54.110;12.138;2023-03-25T04:24:15;99469.28;;;9.91;100.00
16481;BME280;44634;54.110;12.138;2023-03-25T04:26:48;99474.22;;;9.77;100.00
16481;BME280;44634;54.110;12.138;2023-03-25T04:29:18;99467.13;;;10.10;100.00
16481;BME280;44634;54.110;12.138;2023-03-25T04:31:47;99471.56;;;9.69;100.00
16481;BME280;44634;54.110;12.138;2023-03-25T04:34:15;99473.56;;;10.08;100.00
16481;BME280;44634;54.110;12.138;2023-03-25T04:36:46;99456.75;;;10.17;100.00
16481;BME280;44634;54.110;12.138;2023-03-25T04:39:16;99448.16;;;10.31;100.00
16481;BME280;44634;54.110;12.138;2023-03-25T04:41:49;99425.22;;;10.24;100.00
16481;BME280;44634;54.110;12.138;2023-03-25T04:44:19;99408.81;;;10.53;100.00
16481;BME280;44634;54.110;12.138;2023-03-25T04:46:47;99422.22;;;10.27;100.00
16481;BME280;44634;54.110;12.138;2023-03-25T04:49:17;99420.09;;;10.22;100.00
16481;BME280;44634;54.110;12.138;2023-03-25T04:51:47;99410.84;;;10.42;100.00
16481;BME280;44634;54.110;12.138;2023-03-25T04:54:17;99401.09;;;10.35;100.00
16481;BME280;44634;54.110;12.138;2023-03-25T04:56:45;99395.97;;;10.41;100.00
16481;BME280;44634;54.110;12.138;2023-03-25T04:59:17;99406.72;;;10.16;100.00
16481;BME280;44634;54.110;12.138;2023-03-25T05:01:46;99410.31;;;10.47;100.00
16481;BME280;44634;54.110;12.138;2023-03-25T05:04:16;99412.00;;;10.32;100.00
16481;BME280;44634;54.110;12.138;2023-03-25T05:06:46;99393.81;;;10.37;100.00
16481;BME280;44634;54.110;12.138;2023-03-25T05:09:18;99373.16;;;10.88;100.00
16481;BME280;44634;54.110;12.138;2023-03-25T05:11:48;99363.75;;;10.46;100.00
16481;BME280;44634;54.110;12.138;2023-03-25T05:14:19;99346.53;;;10.58;100.00
16481;BME280;44634;54.110;12.138;2023-03-25T05:16:48;99350.00;;;10.59;100.00
16481;BME280;44634;54.110;12.138;2023-03-25T05:19:17;99354.97;;;10.54;100.00
16481;BME280;44634;54.110;12.138;2023-03-25T05:21:47;99338.97;;;10.47;100.00
16481;BME280;44634;54.110;12.138;2023-03-25T05:24:15;99351.00;;;10.58;100.00
16481;BME280;44634;54.110;12.138;2023-03-25T05:26:43;99349.19;;;10.50;100.00
16481;BME280;44634;54.110;12.138;2023-03-25T05:29:13;99342.38;;;10.56;100.00
16481;BME280;44634;54.110;12.138;2023-03-25T05:31:46;99328.72;;;10.83;100.00
16481;BME280;44634;54.110;12.138;2023-03-25T05:34:15;99337.34;;;10.77;100.00
16481;BME280;44634;54.110;12.138;2023-03-25T05:36:46;99328.22;;;10.57;100.00
16481;BME280;44634;54.110;12.138;2023-03-25T05:39:21;99331.41;;;10.75;100.00
16481;BME280;44634;54.110;12.138;2023-03-25T05:41:51;99337.78;;;10.58;100.00
16481;BME280;44634;54.110;12.138;2023-03-25T05:44:21;99331.78;;;10.64;100.00
16481;BME280;44634;54.110;12.138;2023-03-25T05:46:51;99321.56;;;10.61;100.00
16481;BME280;44634;54.110;12.138;2023-03-25T05:49:22;99328.50;;;10.62;100.00
16481;BME280;44634;54.110;12.138;2023-03-25T05:51:54;99330.41;;;10.45;100.00
16481;BME280;44634;54.110;12.138;2023-03-25T05:54:22;99332.69;;;10.48;100.00
16481;BME280;44634;54.110;12.138;2023-03-25T05:56:54;99317.19;;;10.45;100.00
16481;BME280;44634;54.110;12.138;2023-03-25T05:59:22;99327.63;;;10.69;100.00
16481;BME280;44634;54.110;12.138;2023-03-25T06:01:54;99321.66;;;10.76;100.00
16481;BME280;44634;54.110;12.138;2023-03-25T06:04:22;99322.50;;;10.99;100.00
16481;BME280;44634;54.110;12.138;2023-03-25T06:06:51;99314.59;;;10.68;100.00
16481;BME280;44634;54.110;12.138;2023-03-25T06:09:19;99320.50;;;10.78;100.00
16481;BME280;44634;54.110;12.138;2023-03-25T06:11:47;99326.06;;;10.83;100.00
16481;BME280;44634;54.110;12.138;2023-03-25T06:14:19;99353.47;;;10.51;100.00
16481;BME280;44634;54.110;12.138;2023-03-25T06:16:52;99318.00;;;11.08;100.00
16481;BME280;44634;54.110;12.138;2023-03-25T06:19:22;99307.81;;;10.96;100.00
16481;BME280;44634;54.110;12.138;2023-03-25T06:21:52;99296.25;;;11.20;100.00
16481;BME280;44634;54.110;12.138;2023-03-25T06:24:24;99301.50;;;11.06;100.00
16481;BME280;44634;54.110;12.138;2023-03-25T06:26:52;99282.31;;;11.26;100.00
16481;BME280;44634;54.110;12.138;2023-03-25T06:29:21;99277.97;;;11.11;100.00
16481;BME280;44634;54.110;12.138;2023-03-25T06:31:48;99275.63;;;11.16;100.00
16481;BME280;44634;54.110;12.138;2023-03-25T06:34:18;99289.44;;;11.03;100.00
16481;BME280;44634;54.110;12.138;2023-03-25T06:36:49;99303.59;;;10.87;100.00
16481;BME280;44634;54.110;12.138;2023-03-25T06:39:19;99261.13;;;11.49;100.00
16481;BME280;44634;54.110;12.138;2023-03-25T06:41:47;99266.25;;;11.66;100.00
16481;BME280;44634;54.110;12.138;2023-03-25T06:44:16;99284.44;;;11.08;100.00
16481;BME280;44634;54.110;12.138;2023-03-25T06:46:50;99267.09;;;11.66;100.00
16481;BME280;44634;54.110;12.138;2023-03-25T06:49:28;99253.63;;;11.90;100.00
16481;BME280;44634;54.110;12.138;2023-03-25T06:51:56;99255.94;;;11.56;100.00
16481;BME280;44634;54.110;12.138;2023-03-25T06:54:28;99251.00;;;11.53;100.00
16481;BME280;44634;54.110;12.138;2023-03-25T06:56:56;99260.28;;;11.72;100.00
16481;BME280;44634;54.110;12.138;2023-03-25T06:59:24;99257.38;;;11.81;100.00
16481;BME280;44634;54.110;12.138;2023-03-25T07:01:52;99249.88;;;12.14;100.00
16481;BME280;44634;54.110;12.138;2023-03-25T07:04:21;99253.09;;;11.95;100.00
16481;BME280;44634;54.110;12.138;2023-03-25T07:06:50;99245.41;;;12.30;100.00
16481;BME280;44634;54.110;12.138;2023-03-25T07:09:20;99263.31;;;11.46;100.00
16481;BME280;44634;54.110;12.138;2023-03-25T07:11:50;99248.59;;;12.25;100.00
16481;BME280;44634;54.110;12.138;2023-03-25T07:14:18;99254.25;;;12.22;100.00
16481;BME280;44634;54.110;12.138;2023-03-25T07:16:45;99253.88;;;12.25;100.00
16481;BME280;44634;54.110;12.138;2023-03-25T07:19:15;99263.03;;;11.93;100.00
16481;BME280;44634;54.110;12.138;2023-03-25T07:21:45;99330.03;;;12.16;100.00
16481;BME280;44634;54.110;12.138;2023-03-25T07:24:15;99541.97;;;11.62;100.00
16481;BME280;44634;54.110;12.138;2023-03-25T07:26:42;99462.22;;;11.26;100.00
16481;BME280;44634;54.110;12.138;2023-03-25T07:29:15;99356.09;;;11.21;100.00
16481;BME280;44634;54.110;12.138;2023-03-25T07:31:46;99354.59;;;10.96;100.00
16481;BME280;44634;54.110;12.138;2023-03-25T07:34:14;99385.41;;;10.81;100.00
16481;BME280;44634;54.110;12.138;2023-03-25T07:36:42;99307.06;;;10.57;100.00
16481;BME280;44634;54.110;12.138;2023-03-25T07:39:10;99308.28;;;10.77;100.00
16481;BME280;44634;54.110;12.138;2023-03-25T07:41:39;99317.91;;;10.31;100.00
16481;BME280;44634;54.110;12.138;2023-03-25T07:44:08;99306.56;;;10.53;100.00
16481;BME280;44634;54.110;12.138;2023-03-25T07:46:36;99324.50;;;10.19;100.00
16481;BME280;44634;54.110;12.138;2023-03-25T07:49:06;99337.88;;;10.33;100.00
16481;BME280;44634;54.110;12.138;2023-03-25T07:51:35;99387.72;;;10.36;100.00
16481;BME280;44634;54.110;12.138;2023-03-25T07:54:03;99403.59;;;10.04;100.00
16481;BME280;44634;54.110;12.138;2023-03-25T07:56:32;99400.91;;;10.45;100.00
16481;BME280;44634;54.110;12.138;2023-03-25T07:59:04;99382.13;;;11.10;100.00
16481;BME280;44634;54.110;12.138;2023-03-25T08:01:33;99369.59;;;11.35;100.00
16481;BME280;44634;54.110;12.138;2023-03-25T08:04:01;99352.81;;;11.42;100.00
16481;BME280;44634;54.110;12.138;2023-03-25T08:06:31;99334.38;;;11.34;100.00
16481;BME280;44634;54.110;12.138;2023-03-25T08:08:58;99331.69;;;11.57;100.00
16481;BME280;44634;54.110;12.138;2023-03-25T08:11:26;99343.63;;;11.76;100.00
16481;BME280;44634;54.110;12.138;2023-03-25T08:14:01;100020.91;;;11.74;100.00
16481;BME280;44634;54.110;12.138;2023-03-25T08:16:30;99950.84;;;11.52;100.00
16481;BME280;44634;54.110;12.138;2023-03-25T08:18:58;99825.72;;;11.01;100.00
16481;BME280;44634;54.110;12.138;2023-03-25T08:21:26;99755.28;;;11.24;100.00
16481;BME280;44634;54.110;12.138;2023-03-25T08:23:56;99684.28;;;11.52;100.00
16481;BME280;44634;54.110;12.138;2023-03-25T08:26:28;99645.16;;;11.31;100.00
16481;BME280;44634;54.110;12.138;2023-03-25T08:28:57;99617.09;;;11.61;100.00
16481;BME280;44634;54.110;12.138;2023-03-25T08:31:28;99583.41;;;11.39;100.00
16481;BME280;44634;54.110;12.138;2023-03-25T08:33:57;99576.66;;;11.37;100.00
16481;BME280;44634;54.110;12.138;2023-03-25T08:36:25;99569.06;;;11.33;100.00
16481;BME280;44634;54.110;12.138;2023-03-25T08:38:54;99585.47;;;11.13;100.00
16481;BME280;44634;54.110;12.138;2023-03-25T08:41:24;99598.69;;;11.21;100.00
16481;BME280;44634;54.110;12.138;2023-03-25T08:43:52;99601.75;;;10.85;100.00
16481;BME280;44634;54.110;12.138;2023-03-25T08:46:20;99616.59;;;10.78;100.00
16481;BME280;44634;54.110;12.138;2023-03-25T08:48:50;99589.91;;;11.28;100.00
16481;BME280;44634;54.110;12.138;2023-03-25T08:51:19;99576.72;;;11.59;100.00
16481;BME280;44634;54.110;12.138;2023-03-25T08:53:47;99569.09;;;11.56;100.00
16481;BME280;44634;54.110;12.138;2023-03-25T08:56:16;99601.44;;;11.44;100.00
16481;BME280;44634;54.110;12.138;2023-03-25T08:58:52;99579.53;;;11.11;100.00
16481;BME280;44634;54.110;12.138;2023-03-25T09:01:21;99552.13;;;11.03;100.00
16481;BME280;44634;54.110;12.138;2023-03-25T09:03:53;100024.53;;;10.62;100.00
16481;BME280;44634;54.110;12.138;2023-03-25T09:06:23;99923.84;;;10.04;100.00
16481;BME280;44634;54.110;12.138;2023-03-25T09:09:13;99815.81;;;10.19;100.00
16481;BME280;44634;54.110;12.138;2023-03-25T09:11:41;99730.06;;;10.55;100.00
16481;BME280;44634;54.110;12.138;2023-03-25T09:14:11;99659.72;;;11.19;100.00
16481;BME280;44634;54.110;12.138;2023-03-25T09:16:39;99592.34;;;11.38;100.00
16481;BME280;44634;54.110;12.138;2023-03-25T09:19:09;99567.94;;;11.12;100.00
16481;BME280;44634;54.110;12.138;2023-03-25T09:21:38;99561.88;;;11.50;100.00
16481;BME280;44634;54.110;12.138;2023-03-25T09:24:07;99519.53;;;11.50;100.00
16481;BME280;44634;54.110;12.138;2023-03-25T09:26:35;99496.16;;;11.54;100.00
16481;BME280;44634;54.110;12.138;2023-03-25T09:29:05;99459.00;;;11.47;100.00
16481;BME280;44634;54.110;12.138;2023-03-25T09:31:33;99437.22;;;11.91;100.00
16481;BME280;44634;54.110;12.138;2023-03-25T09:34:01;99439.59;;;11.78;100.00
16481;BME280;44634;54.110;12.138;2023-03-25T09:36:32;99419.53;;;12.06;100.00
16481;BME280;44634;54.110;12.138;2023-03-25T09:39:00;99435.00;;;11.49;100.00
16481;BME280;44634;54.110;12.138;2023-03-25T09:41:53;99445.31;;;12.12;100.00
16481;BME280;44634;54.110;12.138;2023-03-25T09:44:26;99444.28;;;11.68;100.00
16481;BME280;44634;54.110;12.138;2023-03-25T09:46:59;99469.16;;;12.12;100.00
16481;BME280;44634;54.110;12.138;2023-03-25T09:49:36;99486.19;;;11.64;100.00
16481;BME280;44634;54.110;12.138;2023-03-25T09:52:12;99479.22;;;11.94;100.00
16481;BME280;44634;54.110;12.138;2023-03-25T09:54:45;99481.84;;;12.02;100.00
16481;BME280;44634;54.110;12.138;2023-03-25T09:57:20;99457.16;;;12.54;100.00
16481;BME280;44634;54.110;12.138;2023-03-25T09:59:51;99364.56;;;14.38;100.00
16481;BME280;44634;54.110;12.138;2023-03-25T10:02:29;99297.22;;;14.24;100.00
16481;BME280;44634;54.110;12.138;2023-03-25T10:08:38;99278.16;;;15.76;100.00
16481;BME280;44634;54.110;12.138;2023-03-25T10:11:45;99339.78;;;17.35;100.00
16481;BME280;44634;54.110;12.138;2023-03-25T10:14:35;99665.16;;;17.13;100.00
16481;BME280;44634;54.110;12.138;2023-03-25T10:17:19;99721.19;;;15.78;100.00
16481;BME280;44634;54.110;12.138;2023-03-25T10:19:57;99727.50;;;16.53;100.00
16481;BME280;44634;54.110;12.138;2023-03-25T10:22:34;99744.06;;;17.29;100.00
16481;BME280;44634;54.110;12.138;2023-03-25T10:25:13;99769.53;;;18.04;100.00
16481;BME280;44634;54.110;12.138;2023-03-25T10:27:44;99769.16;;;17.61;100.00
16481;BME280;44634;54.110;12.138;2023-03-25T10:30:24;99772.41;;;15.73;100.00
16481;BME280;44634;54.110;12.138;2023-03-25T10:33:22;99722.13;;;14.72;100.00
16481;BME280;44634;54.110;12.138;2023-03-25T10:35:59;99702.00;;;13.82;100.00
16481;BME280;44634;54.110;12.138;2023-03-25T10:38:32;99650.78;;;13.59;100.00
16481;BME280;44634;54.110;12.138;2023-03-25T10:41:11;99656.50;;;14.43;100.00
16481;BME280;44634;54.110;12.138;2023-03-25T10:43:42;99729.03;;;16.27;100.00
16481;BME280;44634;54.110;12.138;2023-03-25T10:46:17;99747.75;;;16.41;100.00
16481;BME280;44634;54.110;12.138;2023-03-25T10:48:47;99760.06;;;15.94;100.00
16481;BME280;44634;54.110;12.138;2023-03-25T10:51:21;99751.03;;;15.17;100.00
16481;BME280;44634;54.110;12.138;2023-03-25T10:53:53;99707.94;;;14.86;100.00
16481;BME280;44634;54.110;12.138;2023-03-25T10:56:25;99750.03;;;17.11;100.00
16481;BME280;44634;54.110;12.138;2023-03-25T10:58:57;99771.72;;;16.69;100.00
16481;BME280;44634;54.110;12.138;2023-03-25T11:01:35;99755.00;;;15.50;100.00
16481;BME280;44634;54.110;12.138;2023-03-25T11:04:06;99746.41;;;15.05;100.00
16481;BME280;44634;54.110;12.138;2023-03-25T11:06:37;99724.56;;;14.37;100.00
16481;BME280;44634;54.110;12.138;2023-03-25T11:09:22;99716.72;;;14.14;100.00
16481;BME280;44634;54.110;12.138;2023-03-25T11:11:52;99699.56;;;14.17;100.00
16481;BME280;44634;54.110;12.138;2023-03-25T11:14:23;99649.59;;;13.91;100.00
16481;BME280;44634;54.110;12.138;2023-03-25T11:16:54;99600.16;;;12.78;100.00
16481;BME280;44634;54.110;12.138;2023-03-25T11:19:27;99533.13;;;13.29;100.00
16481;BME280;44634;54.110;12.138;2023-03-25T11:22:02;99517.00;;;13.16;100.00
16481;BME280;44634;54.110;12.138;2023-03-25T11:24:41;99435.56;;;13.16;100.00
16481;BME280;44634;54.110;12.138;2023-03-25T11:27:18;99521.19;;;14.48;100.00
16481;BME280;44634;54.110;12.138;2023-03-25T11:29:50;99546.41;;;14.58;100.00
16481;BME280;44634;54.110;12.138;2023-03-25T11:32:31;99557.88;;;14.87;100.00
16481;BME280;44634;54.110;12.138;2023-03-25T11:35:01;99617.06;;;14.61;100.00
16481;BME280;44634;54.110;12.138;2023-03-25T11:41:20;99590.16;;;13.77;100.00
16481;BME280;44634;54.110;12.138;2023-03-25T11:43:50;99521.16;;;13.33;100.00
16481;BME280;44634;54.110;12.138;2023-03-25T11:46:19;99446.94;;;12.51;100.00
16481;BME280;44634;54.110;12.138;2023-03-25T11:48:48;99403.91;;;12.11;100.00
16481;BME280;44634;54.110;12.138;2023-03-25T11:51:19;99344.28;;;11.09;100.00
16481;BME280;44634;54.110;12.138;2023-03-25T11:53:54;99312.72;;;11.08;100.00
16481;BME280;44634;54.110;12.138;2023-03-25T11:56:33;99297.59;;;10.70;100.00
16481;BME280;44634;54.110;12.138;2023-03-25T11:59:06;99288.38;;;10.89;100.00
16481;BME280;44634;54.110;12.138;2023-03-25T12:01:39;99974.28;;;10.88;100.00
16481;BME280;44634;54.110;12.138;2023-03-25T12:04:12;99918.06;;;10.26;100.00
16481;BME280;44634;54.110;12.138;2023-03-25T12:06:59;100264.88;;;10.73;100.00
16481;BME280;44634;54.110;12.138;2023-03-25T12:09:29;100152.00;;;11.18;100.00
16481;BME280;44634;54.110;12.138;2023-03-25T12:12:18;99968.09;;;11.14;100.00
16481;BME280;44634;54.110;12.138;2023-03-25T12:14:59;99787.34;;;10.89;100.00
16481;BME280;44634;54.110;12.138;2023-03-25T12:17:39;99670.25;;;10.38;100.00
16481;BME280;44634;54.110;12.138;2023-03-25T12:20:17;99615.28;;;10.90;100.00
16481;BME280;44634;54.110;12.138;2023-03-25T12:22:54;99545.06;;;10.80;100.00
16481;BME280;44634;54.110;12.138;2023-03-25T12:25:33;99533.66;;;10.55;100.00
16481;BME280;44634;54.110;12.138;2023-03-25T12:28:16;99515.19;;;10.71;100.00
16481;BME280;44634;54.110;12.138;2023-03-25T12:30:54;99474.94;;;10.92;100.00
16481;BME280;44634;54.110;12.138;2023-03-25T12:33:37;99469.97;;;10.97;100.00
16481;BME280;44634;54.110;12.138;2023-03-25T12:36:19;99423.03;;;11.30;100.00
16481;BME280;44634;54.110;12.138;2023-03-25T12:38:58;99365.31;;;11.71;100.00
16481;BME280;44634;54.110;12.138;2023-03-25T12:41:34;99317.84;;;11.32;100.00
16481;BME280;44634;54.110;12.138;2023-03-25T12:44:07;99292.59;;;12.56;100.00
16481;BME280;44634;54.110;12.138;2023-03-25T12:46:53;99232.38;;;12.49;100.00
16481;BME280;44634;54.110;12.138;2023-03-25T12:49:36;99217.75;;;12.54;100.00
16481;BME280;44634;54.110;12.138;2023-03-25T12:52:10;99219.72;;;12.66;100.00
16481;BME280;44634;54.110;12.138;2023-03-25T12:54:51;99170.75;;;14.63;100.00
16481;BME280;44634;54.110;12.138;2023-03-25T12:57:35;99184.09;;;15.03;100.00
16481;BME280;44634;54.110;12.138;2023-03-25T13:00:27;99491.22;;;16.17;100.00
16481;BME280;44634;54.110;12.138;2023-03-25T13:03:21;99785.19;;;15.85;100.00
16481;BME280;44634;54.110;12.138;2023-03-25T13:05:57;99625.03;;;13.59;100.00
16481;BME280;44634;54.110;12.138;2023-03-25T13:08:30;99621.72;;;15.36;100.00
16481;BME280;44634;54.110;12.138;2023-03-25T13:11:01;99670.22;;;15.94;100.00
16481;BME280;44634;54.110;12.138;2023-03-25T13:13:34;99713.56;;;15.75;100.00
16481;BME280;44634;54.110;12.138;2023-03-25T13:16:06;99710.03;;;16.02;100.00
16481;BME280;44634;54.110;12.138;2023-03-25T13:18:40;99734.38;;;17.02;100.00
16481;BME280;44634;54.110;12.138;2023-03-25T13:21:15;99737.53;;;15.47;100.00